Weather observations for the past three days for
Greater Portsmouth Regional Airport
Imperial (Metric)
Date Time (edt) Wind (mph) Vis. (mi.) Weather Sky Cond. Temperature (ºF) Relative Humidity Wind Chill (°F) Heat Index (°F) Pressure Precipitation (in)
Air Dwpt 6 hour altimeter (in) sea level (mb) 1 hr 3 hr 6 hr
Max. Min.
01 16:35 S 6 10.00 Partly Cloudy SCT060 93.2 68 44% 98 30.05 0.0
01 16:15 S 7 10.00 A Few Clouds FEW060 93.2 68 44% 98 30.05 0.0
01 15:55 Vrbl 6 10.00 A Few Clouds FEW060 93.2 69.8 47% 99 30.06 0.0
01 15:35 S 7 10.00 Partly Cloudy SCT060 93.2 69.8 47% 99 30.06 0.0
01 15:15 NW 6 10.00 A Few Clouds FEW060 93.2 68 44% 98 30.07 0.0
01 14:55 Vrbl 7 10.00 A Few Clouds FEW050 93.2 69.8 47% 99 30.07 0.0
01 14:35 Vrbl 6 10.00 A Few Clouds FEW050 93.2 69.8 47% 99 30.08 0.0
01 14:15 Vrbl 3 10.00 Fair CLR 91.4 69.8 49% 97 30.08 0.0
01 13:55 W 7 10.00 Fair CLR 91.4 69.8 92.5 70 49% 97 30.09 0.0
01 13:35 NW 8 10.00 Partly Cloudy SCT049 91.4 69.8 49% 97 30.1 0.0
01 13:15 Vrbl 6 10.00 Partly Cloudy SCT049 91.4 69.8 49% 97 30.1 0.0
01 12:55 NW 9 10.00 A Few Clouds FEW047 91.4 71.6 52% 99 30.11 0.0
01 12:35 Vrbl 5 10.00 A Few Clouds FEW046 91.4 73.4 56% 100 30.11 0.0
01 12:15 Vrbl 3 10.00 Fair CLR 89.6 73.4 59% 98 30.11 0.0
01 11:55 W 8 G 18 10.00 Fair CLR 89.6 71.6 55% 96 30.11 0.0
01 11:35 NW 9 10.00 Fair CLR 87.8 73.4 62% 96 30.1 0.0
01 11:15 Vrbl 5 10.00 Fair CLR 87.8 75.2 66% 98 30.1 0.0
01 10:55 Vrbl 1 10.00 Fair CLR 86 75.2 70% 95 30.11 0.0
01 10:35 Vrbl 3 10.00 Light Rain CLR 86 78.8 79% 99 30.11 0.0
01 10:15 SE 6 10.00 Fair CLR 82.4 78.8 89% 92 30.11 0.0
01 09:55 SE 5 10.00 Fair CLR 80.6 77 89% 87 30.11 0.0
01 09:35 S 6 10.00 Fair CLR 77 77 100% 78 30.11 0.0
01 09:10 SE 5 10.00 Fair CLR 75.2 75.2 100% 73 30.11 0.0
01 08:55 SE 6 7.00 A Few Clouds FEW001 73.4 73.4 100% 30.11 0.0
01 08:35 S 5 2.50 Fog/Mist BKN001 71.6 71.6 100% 30.12 0.0
01 08:15 SE 5 0.25 Fog OVC001 71.6 71.6 100% 30.12 0.0
01 07:55 S 5 0.15 Fog OVC001 69.8 69.8 72.5 69.1 100% 30.11 0.0
01 07:35 S 2 0.15 Fog OVC001 69.8 69.8 100% 30.11 0.0
01 07:15 S 3 0.15 Fog OVC001 69.8 69.8 100% 30.1 0.0
01 06:55 S 2 0.00 Mostly Cloudy BKN001 0 0 0% 30.09 0.0
01 06:35 S 2 0.15 Fog OVC001 69.8 69.8 100% 30.09 0.0
01 06:15 S 3 0.15 Fog OVC001 69.8 69.8 100% 30.08 0.0
01 05:55 S 3 0.15 Overcast OVC001 0 0 0% 30.08 0.0
01 05:35 S 2 0.15 Fog OVC001 69.8 69.8 100% 30.08 0.0
01 05:15 S 2 0.15 Fog BKN001 69.8 69.8 100% 30.07 0.0
01 04:55 S 2 0.15 Fog VV000 69.8 69.8 100% 30.07 0.0
01 04:35 S 1 0.15 Fog BKN001 71.6 71.6 100% 30.07 0.0
01 04:15 SE 1 0.15 Fog BKN001 71.6 71.6 100% 30.07 0.0
01 03:55 E 1 1.00 Fog/Mist CLR 71.6 71.6 100% 30.07 0.0
01 03:35 S 1 2.50 Fog/Mist CLR 71.6 71.6 100% 30.06 0.0
01 03:15 Calm 1.00 Fog/Mist SCT002 71.6 71.6 100% 30.06 0.0
01 02:55 SW 1 0.75 Fog/Mist BKN002 71.6 71.6 100% 30.06 0.0
01 02:36 SW 1 0.75 Fog/Mist VV005 71.6 71.6 100% 30.06 0.0
01 02:15 S 2 1.50 Fog/Mist SCT001 71.6 71.6 100% 30.06 0.0
01 01:54 S 7 2.00 Fog/Mist SCT001 71.6 71.6 82.8 71.8 100% 30.05 0.0
01 01:37 S 5 0.15 Fog BKN001 71.6 71.6 100% 30.06 0.0
01 01:15 S 5 2.50 Fog/Mist SCT001 71.6 71.6 100% 30.07 0.0
01 00:55 S 5 1.50 Fog/Mist BKN001 71.6 71.6 100% 30.07 0.0
01 00:35 S 3 1.75 Fog/Mist BKN001 71.6 71.6 100% 30.08 0.0
01 00:15 S 1 3.00 Fog/Mist FEW001 73.4 73.4 100% 30.08 0.0
31 23:55 S 2 4.00 Fog/Mist CLR 73.4 73.4 100% 30.08 0.0
31 23:35 S 2 7.00 Fog/Mist CLR 73.4 73.4 100% 30.08 0.0
31 23:15 S 2 7.00 A Few Clouds FEW046 73.4 73.4 100% 30.08 0.0
31 22:55 S 1 10.00 Partly Cloudy SCT046 75.2 75.2 100% 73 30.09 0.0
31 22:35 Vrbl 2 10.00 Fair CLR 75.2 75.2 100% 73 30.09 0.0
31 22:15 S 3 10.00 A Few Clouds FEW050 75.2 75.2 100% 73 30.08 0.0
31 21:55 W 1 10.00 A Few Clouds FEW050 77 77 100% 78 30.09 0.0
31 21:35 Calm 10.00 Fair CLR 78.8 77 94% 83 30.08 0.0
31 21:15 S 1 10.00 Fair CLR 78.8 77 94% 83 30.07 0.0
31 20:55 NW 1 10.00 Fair CLR 80.6 77 89% 87 30.06 0.0
31 20:35 W 1 10.00 Fair CLR 80.6 78.8 94% 88 30.06 0.0
31 20:15 Vrbl 2 10.00 Fair CLR 82.4 78.8 89% 92 30.05 0.0
31 19:35 S 3 10.00 Fair CLR 82.4 78.8 89% 92 30.05 0.0
31 19:15 S 2 10.00 Fair CLR 86 75.2 70% 95 30.04 0.0
31 18:55 SW 1 10.00 Fair CLR 87.8 73.4 62% 96 30.05 0.0
31 18:35 Vrbl 2 10.00 Fair CLR 89.6 73.4 59% 98 30.05 0.0
31 18:13 Vrbl 1 10.00 Fair CLR 89.6 73.4 59% 98 30.05 0.0
31 17:55 Vrbl 3 10.00 Fair CLR 89.6 71.6 55% 96 30.06 0.0
31 17:35 W 3 10.00 Fair CLR 89.6 69.8 52% 95 30.06 0.0
31 17:15 Vrbl 2 10.00 Fair CLR 91.4 69.8 49% 97 30.07 0.0
31 16:55 W 7 10.00 A Few Clouds FEW060 91.4 68 46% 96 30.07 0.0
31 16:35 Vrbl 5 10.00 A Few Clouds FEW060 93.2 69.8 47% 99 30.07 0.0
31 16:11 Vrbl 6 10.00 A Few Clouds FEW060 FEW070 FEW090 91.4 68 46% 96 30.08 0.0
31 15:55 Vrbl 6 10.00 A Few Clouds FEW070 FEW090 91.4 69.8 49% 97 30.08 0.0
31 15:34 Vrbl 2 10.00 Partly Cloudy FEW049 SCT070 SCT120 87.8 77 70% 100 30.09 0.0
31 15:15 Vrbl 6 10.00 Partly Cloudy SCT049 SCT060 SCT120 91.4 71.6 52% 99 30.1 0.0
31 14:55 Vrbl 6 10.00 A Few Clouds FEW049 FEW070 91.4 69.8 49% 97 30.1 0.0
31 14:36 W 10 G 16 10.00 Partly Cloudy FEW049 SCT070 SCT090 91.4 71.6 52% 99 30.1 0.0
31 14:14 Vrbl 6 10.00 Fair CLR 93.2 71.6 50% 101 30.11 0.0
31 13:56 W 8 10.00 A Few Clouds FEW048 FEW050 91.4 71.6 52% 99 30.11 0.0
31 13:34 Vrbl 6 10.00 Fair CLR 91.4 71.6 52% 99 30.12 0.0
31 13:16 W 8 10.00 Fair CLR 89.6 71.6 55% 96 30.12 0.0
31 12:56 NW 7 10.00 Fair CLR 89.6 71.6 55% 96 30.12 0.0
31 12:35 Vrbl 2 10.00 Fair CLR 87.8 78.8 75% 102 30.13 0.0
31 12:14 SE 7 10.00 Fair CLR 86 77 75% 97 30.13 0.0
31 11:54 SE 7 10.00 Fair CLR 84.2 77 79% 94 30.13 0.0
31 11:35 SE 7 10.00 Fair CLR 82.4 77 84% 91 30.13 0.0
31 11:15 SE 7 10.00 Fair CLR 80.6 77 89% 87 30.13 0.0
31 10:55 S 6 10.00 Fair CLR 77 77 100% 78 30.13 0.0
31 10:35 S 6 10.00 Fair CLR 75.2 75.2 100% 73 30.13 0.0
31 10:13 SE 3 10.00 Fair CLR 75.2 75.2 100% 73 30.13 0.0
31 09:55 SE 5 9.00 Fair CLR 73.4 73.4 100% 30.13 0.0
31 09:35 S 5 6.00 Fog/Mist CLR 71.6 71.6 100% 30.13 0.0
31 09:15 S 3 3.00 Fog/Mist CLR 71.6 71.6 100% 30.13 0.0
31 08:55 S 5 3.00 Fog/Mist FEW070 71.6 69.8 94% 30.13 0.0
31 08:35 S 2 2.50 Fog/Mist SCT001 BKN070 69.8 69.8 100% 30.13 0.0
31 08:15 S 2 0.75 Fog/Mist OVC001 69.8 69.8 100% 30.12 0.0
31 07:56 S 2 0.50 Fog OVC001 69.8 69.8 100% 30.12 0.0
31 07:35 S 2 0.15 Fog OVC001 69.8 69.8 100% 30.11 0.0
31 07:15 S 2 0.15 Fog OVC001 69.8 69.8 100% 30.11 0.0
31 06:55 S 3 0.50 Fog OVC001 69.8 69.8 100% 30.1 0.0
31 06:37 SE 1 2.00 Fog/Mist OVC001 69.8 68 94% 30.1 0.0
31 06:16 Calm 0.50 Fog OVC001 69.8 69.8 100% 30.1 0.0
31 05:55 SE 1 0.25 Fog OVC001 68 68 100% 30.09 0.0
31 05:35 SE 3 0.15 Fog OVC001 68 68 100% 30.09 0.0
31 05:15 S 3 0.15 Fog OVC001 68 68 100% 30.09 0.0
31 04:55 S 2 0.15 Fog OVC001 69.8 68 94% 30.1 0.0
31 04:35 S 1 0.15 Fog OVC001 69.8 69.8 100% 30.09 0.0
31 04:15 Calm 0.15 Fog OVC001 69.8 69.8 100% 30.09 0.0
31 03:55 SE 1 0.15 Fog OVC001 69.8 69.8 100% 30.09 0.0
31 03:35 S 2 0.15 Fog OVC001 69.8 69.8 100% 30.09 0.0
31 03:15 Vrbl 1 0.15 Fog OVC001 69.8 69.8 100% 30.09 0.0
31 02:55 Calm 0.15 Fog OVC001 69.8 69.8 100% 30.1 0.0
31 02:35 SE 1 0.50 Fog OVC001 69.8 69.8 100% 30.09 0.0
31 02:15 SE 1 4.00 Fog/Mist OVC001 69.8 69.8 100% 30.1 0.0
31 01:55 S 1 0.50 Fog BKN001 69.8 69.8 81.7 70 100% 30.1 0.0
31 01:35 Calm 0.50 Fog VV005 69.8 69.8 100% 30.1 0.0
31 01:15 SE 2 7.00 Fog/Mist CLR 69.8 69.8 100% 30.1 0.0
31 00:55 S 1 5.00 Fog/Mist CLR 69.8 69.8 100% 30.1 0.0
31 00:35 SE 1 9.00 Fair CLR 71.6 71.6 100% 30.1 0.0
31 00:15 S 1 7.00 Fog/Mist CLR 71.6 71.6 100% 30.1 0.0
30 23:35 Calm 10.00 Fair CLR 71.6 71.6 100% 30.11 0.0
30 23:15 Calm 10.00 Fair CLR 73.4 73.4 100% 30.11 0.0
30 22:55 N 1 10.00 Fair CLR 75.2 75.2 100% 73 30.11 0.0
30 22:36 N 2 10.00 Fair CLR 75.2 75.2 100% 73 30.11 0.0
30 22:16 S 2 10.00 Fair CLR 75.2 75.2 100% 73 30.11 0.0
30 21:55 SE 2 10.00 Fair CLR 77 75.2 94% 78 30.1 0.0
30 21:35 Calm 10.00 Fair CLR 77 75.2 94% 78 30.1 0.0
30 21:16 S 3 10.00 Fair CLR 75.2 73.4 94% 74 30.09 0.0
30 20:55 Calm 10.00 Fair CLR 77 75.2 94% 78 30.09 0.0
30 20:35 N 1 10.00 Fair CLR 78.8 75.2 89% 82 30.08 0.0
30 20:15 S 1 10.00 Fair CLR 78.8 75.2 89% 82 30.07 0.0
30 19:55 W 1 10.00 Fair CLR 80.6 75.2 92.8 81.3 84% 86 30.07 0.0
30 19:35 S 2 10.00 Fair CLR 84.2 73.4 70% 91 30.06 0.0
30 19:15 SW 2 10.00 Fair CLR 86 69.8 59% 91 30.06 0.0
30 18:55 Vrbl 2 10.00 Fair CLR 87.8 69.8 55% 93 30.07 0.0
30 18:35 Vrbl 2 10.00 Fair CLR 87.8 68 52% 91 30.06 0.0
30 18:15 Vrbl 6 10.00 Fair CLR 87.8 68 52% 91 30.05 0.0
30 17:55 S 6 10.00 Fair CLR 89.6 68 49% 93 30.05 0.0
30 17:35 Vrbl 2 10.00 Fair CLR 87.8 66.2 49% 90 30.06 0.0
30 17:15 Vrbl 3 10.00 Fair CLR 89.6 66.2 46% 92 30.07 0.0
30 16:55 SW 6 10.00 Fair CLR 91.4 66.2 44% 94 30.07 0.0
30 16:35 NW 7 10.00 A Few Clouds FEW060 FEW075 FEW110 89.6 68 49% 93 30.08 0.0
30 16:15 W 9 10.00 Partly Cloudy SCT060 89.6 68 49% 93 30.09 0.0
30 15:55 Vrbl 2 10.00 A Few Clouds FEW060 91.4 66.2 44% 94 30.09 0.0
30 15:35 Vrbl 6 10.00 A Few Clouds FEW060 89.6 66.2 46% 92 30.1 0.0
30 15:15 Vrbl 5 10.00 A Few Clouds FEW060 91.4 68 46% 96 30.1 0.0
30 14:55 NW 10 G 16 10.00 Partly Cloudy SCT060 93.2 68 44% 98 30.11 0.0
30 14:35 Vrbl 2 10.00 Partly Cloudy SCT080 SCT100 89.6 69.8 52% 95 30.12 0.0
30 14:15 Vrbl 7 10.00 Mostly Cloudy FEW050 BKN070 BKN100 87.8 69.8 55% 93 30.13 0.0
30 13:55 W 9 10.00 A Few Clouds FEW050 FEW080 89.6 68 91.2 63.7 49% 93 30.13 0.0
30 13:35 Vrbl 5 10.00 A Few Clouds FEW049 91.4 69.8 49% 97 30.14 0.0
30 13:15 Vrbl 6 10.00 Fair CLR 89.6 73.4 59% 98 30.14 0.0
30 12:55 Vrbl 2 10.00 Fair CLR 87.8 75.2 66% 98 30.15 0.0
30 12:31 Vrbl 3 10.00 Fair CLR 86 77 75% 97 30.15 0.0
30 12:15 S 5 10.00 Fair CLR 86 75.2 70% 95 30.15 0.0
30 11:55 Vrbl 5 10.00 Fair CLR 84.2 75.2 74% 92 30.16 0.0
30 11:35 Vrbl 6 10.00 Fair CLR 84.2 75.2 74% 92 30.16 0.0
30 11:15 Vrbl 5 10.00 Fair CLR 82.4 75.2 79% 89 30.16 0.0
30 10:55 Vrbl 5 10.00 Fair CLR 80.6 75.2 84% 86 30.15 0.0
30 10:35 SE 8 10.00 Fair CLR 77 73.4 89% 78 30.15 0.0
30 10:15 SE 7 10.00 Fair CLR 75.2 73.4 94% 74 30.15 0.0
30 09:55 S 6 10.00 A Few Clouds FEW070 73.4 71.6 94% 30.15 0.0
30 09:35 SE 6 10.00 A Few Clouds FEW070 71.6 71.6 100% 30.15 0.0
30 09:15 SE 5 10.00 A Few Clouds FEW070 69.8 69.8 100% 30.15 0.0
30 08:55 SE 2 10.00 Partly Cloudy SCT070 68 68 100% 30.15 0.0
30 08:35 S 3 10.00 Mostly Cloudy BKN070 66.2 66.2 100% 30.15 0.0
30 08:15 S 2 7.00 Fog/Mist SCT070 64.4 64.4 100% 30.14 0.0
30 07:56 Calm 7.00 A Few Clouds FEW070 64.4 64.4 100% 30.14 0.0
30 07:35 SE 2 6.00 Fog/Mist CLR 64.4 64.4 100% 30.14 0.0
30 07:15 S 2 8.00 Fair CLR 64.4 64.4 100% 30.13 0.0
30 06:55 Calm 7.00 Fog/Mist CLR 64.4 64.4 100% 30.13 0.0
30 06:35 S 3 5.00 Fog/Mist CLR 64.4 64.4 100% 30.13 0.0
30 06:15 Calm 10.00 Fair CLR 64.4 64.4 100% 30.13 0.0
30 05:55 W 1 8.00 Fair CLR 64.4 64.4 100% 30.13 0.0
30 05:35 N 1 9.00 Fair CLR 64.4 64.4 100% 30.13 0.0
30 05:15 N 2 10.00 Fair CLR 64.4 64.4 100% 30.13 0.0
30 04:55 SE 1 8.00 Fair CLR 62.6 62.6 100% 30.13 0.0
30 04:35 S 1 8.00 Fair CLR 62.6 62.6 100% 30.13 0.0
30 04:15 N 2 10.00 Fair CLR 62.6 62.6 100% 30.13 0.0
30 03:55 N 3 10.00 Fair CLR 62.6 62.6 100% 30.13 0.0
30 03:35 N 2 10.00 Fair CLR 62.6 62.6 100% 30.13 0.0
30 03:15 N 3 9.00 Fair CLR 62.6 62.6 100% 30.13 0.0
30 02:55 N 2 8.00 Fair CLR 64.4 64.4 100% 30.13 0.0
30 02:35 N 2 7.00 Fog/Mist CLR 64.4 64.4 100% 30.14 0.0
30 02:15 Calm 4.00 Fog/Mist CLR 64.4 64.4 100% 30.14 0.0
30 01:55 Calm 4.00 Fog/Mist CLR 64.4 64.4 77.2 64.8 100% 30.14 0.0
30 01:35 Vrbl 1 8.00 Fair CLR 64.4 64.4 100% 30.14 0.0
30 01:15 Vrbl 1 9.00 Fair CLR 66.2 66.2 100% 30.14 0.0
30 00:55 N 2 10.00 Fair CLR 66.2 66.2 100% 30.14 0.0
30 00:35 NW 1 10.00 Fair CLR 66.2 66.2 100% 30.14 0.0
30 00:15 N 2 10.00 Fair CLR 66.2 66.2 100% 30.14 0.0
29 23:55 N 3 10.00 Fair CLR 68 68 100% 30.14 0.0
29 23:35 N 1 10.00 Fair CLR 68 68 100% 30.14 0.0
29 23:15 N 2 10.00 Fair CLR 68 68 100% 30.14 0.0
29 22:55 N 2 10.00 Fair CLR 68 68 100% 30.13 0.0
29 22:35 N 2 10.00 Fair CLR 68 68 100% 30.13 0.0
29 22:15 N 2 10.00 Fair CLR 69.8 69.8 100% 30.13 0.0
29 21:55 N 3 10.00 Fair CLR 69.8 69.8 100% 30.13 0.0
29 21:35 N 1 10.00 Fair CLR 71.6 69.8 94% 30.12 0.0
29 21:15 SE 1 10.00 Fair CLR 71.6 69.8 94% 30.12 0.0
29 20:55 NW 1 10.00 Fair CLR 71.6 69.8 94% 30.12 0.0
29 20:35 NW 2 10.00 Fair CLR 75.2 69.8 83% 75 30.12 0.0
29 20:15 W 1 10.00 Fair CLR 75.2 69.8 83% 75 30.12 0.0
29 19:55 W 2 10.00 Fair CLR 77 69.8 88.5 78.1 79% 79 30.11 0.0
29 19:35 N 2 10.00 Fair CLR 80.6 68 66% 83 30.11 0.0
29 19:15 NE 5 10.00 Fair CLR 84.2 66.2 55% 87 30.11 0.0
29 18:55 NE 3 10.00 Fair CLR 86 64.4 49% 87 30.11 0.0
29 18:35 S 1 10.00 Fair CLR 86 62.6 46% 87 30.11 0.0
29 18:15 S 3 10.00 Fair CLR 86 64.4 49% 87 30.11 0.0
29 17:55 SE 5 10.00 Fair CLR 86 60.8 43% 86 30.11 0.0
29 17:35 Vrbl 2 10.00 Fair CLR 86 62.6 46% 87 30.11 0.0
29 17:15 SE 2 10.00 Fair CLR 87.8 60.8 40% 88 30.12 0.0
29 16:55 NE 6 10.00 Fair CLR 87.8 60.8 40% 88 30.12 0.0
Date Time (edt) Wind (mph) Vis. (mi.) Weather Sky Cond. Air Dwpt Max. Min. Relative Humidity Wind Chill (°F) Heat Index (°F) altimeter (in) sea level (mb) 1 hr 3 hr 6 hr
6 hour
Temperature (ºF) Pressure Precipitation (in)